sensor_id;sensor_type;location;lat;lon;timestamp;P1;durP1;ratioP1;P2;durP2;ratioP2
14516;SDS011;7344;50.864;4.362;2022-08-03T00:00:39;4.20;;;1.75;;
14516;SDS011;7344;50.864;4.362;2022-08-03T00:03:05;3.20;;;1.75;;
14516;SDS011;7344;50.864;4.362;2022-08-03T00:05:31;7.32;;;1.88;;
14516;SDS011;7344;50.864;4.362;2022-08-03T00:07:59;4.38;;;1.67;;
14516;SDS011;7344;50.864;4.362;2022-08-03T00:10:25;2.78;;;1.70;;
14516;SDS011;7344;50.864;4.362;2022-08-03T00:12:51;3.97;;;1.73;;
14516;SDS011;7344;50.864;4.362;2022-08-03T00:15:18;4.03;;;1.80;;
14516;SDS011;7344;50.864;4.362;2022-08-03T00:17:43;5.50;;;1.85;;
14516;SDS011;7344;50.864;4.362;2022-08-03T00:20:09;4.25;;;1.77;;
14516;SDS011;7344;50.864;4.362;2022-08-03T00:22:35;4.72;;;1.50;;
14516;SDS011;7344;50.864;4.362;2022-08-03T00:25:01;4.55;;;1.83;;
14516;SDS011;7344;50.864;4.362;2022-08-03T00:27:27;6.07;;;1.73;;
14516;SDS011;7344;50.864;4.362;2022-08-03T00:29:52;3.45;;;1.95;;
14516;SDS011;7344;50.864;4.362;2022-08-03T00:32:18;5.55;;;1.90;;
14516;SDS011;7344;50.864;4.362;2022-08-03T00:34:43;3.60;;;1.73;;
14516;SDS011;7344;50.864;4.362;2022-08-03T00:37:09;3.63;;;1.77;;
14516;SDS011;7344;50.864;4.362;2022-08-03T00:39:34;4.70;;;1.95;;
14516;SDS011;7344;50.864;4.362;2022-08-03T00:42:01;4.75;;;1.70;;
14516;SDS011;7344;50.864;4.362;2022-08-03T00:44:27;5.50;;;2.00;;
14516;SDS011;7344;50.864;4.362;2022-08-03T00:46:53;7.22;;;2.10;;
14516;SDS011;7344;50.864;4.362;2022-08-03T00:49:18;6.15;;;2.10;;
14516;SDS011;7344;50.864;4.362;2022-08-03T00:51:44;5.78;;;1.85;;
14516;SDS011;7344;50.864;4.362;2022-08-03T00:54:10;7.22;;;2.03;;
14516;SDS011;7344;50.864;4.362;2022-08-03T00:56:36;4.95;;;2.10;;
14516;SDS011;7344;50.864;4.362;2022-08-03T00:59:02;5.93;;;2.17;;
14516;SDS011;7344;50.864;4.362;2022-08-03T01:01:28;6.78;;;2.38;;
14516;SDS011;7344;50.864;4.362;2022-08-03T01:03:54;5.68;;;2.00;;
14516;SDS011;7344;50.864;4.362;2022-08-03T01:06:30;7.65;;;2.05;;
14516;SDS011;7344;50.864;4.362;2022-08-03T01:09:22;5.43;;;2.10;;
14516;SDS011;7344;50.864;4.362;2022-08-03T01:12:10;5.10;;;1.92;;
14516;SDS011;7344;50.864;4.362;2022-08-03T01:17:38;6.85;;;2.38;;
14516;SDS011;7344;50.864;4.362;2022-08-03T01:20:11;7.55;;;2.00;;
14516;SDS011;7344;50.864;4.362;2022-08-03T01:22:51;8.02;;;1.95;;
14516;SDS011;7344;50.864;4.362;2022-08-03T01:31:03;5.40;;;1.90;;
14516;SDS011;7344;50.864;4.362;2022-08-03T01:33:36;7.20;;;2.33;;
14516;SDS011;7344;50.864;4.362;2022-08-03T01:36:10;6.88;;;2.05;;
14516;SDS011;7344;50.864;4.362;2022-08-03T01:38:40;6.57;;;1.95;;
14516;SDS011;7344;50.864;4.362;2022-08-03T01:41:14;6.22;;;2.05;;
14516;SDS011;7344;50.864;4.362;2022-08-03T01:43:44;9.77;;;2.05;;
14516;SDS011;7344;50.864;4.362;2022-08-03T01:46:13;12.23;;;2.63;;
14516;SDS011;7344;50.864;4.362;2022-08-03T01:48:41;8.80;;;2.80;;
14516;SDS011;7344;50.864;4.362;2022-08-03T01:51:08;9.70;;;2.22;;
14516;SDS011;7344;50.864;4.362;2022-08-03T01:53:36;5.78;;;2.05;;
14516;SDS011;7344;50.864;4.362;2022-08-03T01:56:04;5.07;;;2.10;;
14516;SDS011;7344;50.864;4.362;2022-08-03T01:58:31;10.82;;;2.35;;
14516;SDS011;7344;50.864;4.362;2022-08-03T02:00:59;11.52;;;2.40;;
14516;SDS011;7344;50.864;4.362;2022-08-03T02:03:27;6.38;;;2.03;;
14516;SDS011;7344;50.864;4.362;2022-08-03T02:05:55;10.60;;;2.47;;
14516;SDS011;7344;50.864;4.362;2022-08-03T02:08:23;10.63;;;2.30;;
14516;SDS011;7344;50.864;4.362;2022-08-03T02:10:50;8.93;;;2.08;;
14516;SDS011;7344;50.864;4.362;2022-08-03T02:13:18;6.50;;;1.88;;
14516;SDS011;7344;50.864;4.362;2022-08-03T02:15:46;7.38;;;1.75;;
14516;SDS011;7344;50.864;4.362;2022-08-03T02:18:12;8.50;;;2.45;;
14516;SDS011;7344;50.864;4.362;2022-08-03T02:20:40;5.45;;;2.30;;
14516;SDS011;7344;50.864;4.362;2022-08-03T02:23:08;9.07;;;2.28;;
14516;SDS011;7344;50.864;4.362;2022-08-03T02:25:36;8.27;;;2.50;;
14516;SDS011;7344;50.864;4.362;2022-08-03T02:28:08;7.93;;;2.60;;
14516;SDS011;7344;50.864;4.362;2022-08-03T02:30:37;8.18;;;2.40;;
14516;SDS011;7344;50.864;4.362;2022-08-03T02:33:06;6.80;;;2.13;;
14516;SDS011;7344;50.864;4.362;2022-08-03T02:35:37;5.43;;;1.98;;
14516;SDS011;7344;50.864;4.362;2022-08-03T02:38:06;4.60;;;2.15;;
14516;SDS011;7344;50.864;4.362;2022-08-03T02:40:34;8.65;;;2.10;;
14516;SDS011;7344;50.864;4.362;2022-08-03T02:43:06;8.00;;;2.30;;
14516;SDS011;7344;50.864;4.362;2022-08-03T02:45:37;9.15;;;2.40;;
14516;SDS011;7344;50.864;4.362;2022-08-03T02:48:06;6.25;;;2.50;;
14516;SDS011;7344;50.864;4.362;2022-08-03T02:50:33;5.82;;;2.38;;
14516;SDS011;7344;50.864;4.362;2022-08-03T02:52:59;5.05;;;2.17;;
14516;SDS011;7344;50.864;4.362;2022-08-03T02:55:27;7.40;;;1.95;;
14516;SDS011;7344;50.864;4.362;2022-08-03T02:57:54;6.40;;;2.38;;
14516;SDS011;7344;50.864;4.362;2022-08-03T03:00:21;5.25;;;2.47;;
14516;SDS011;7344;50.864;4.362;2022-08-03T03:02:47;8.55;;;2.67;;
14516;SDS011;7344;50.864;4.362;2022-08-03T03:05:14;5.78;;;2.05;;
14516;SDS011;7344;50.864;4.362;2022-08-03T03:07:40;4.05;;;2.10;;
14516;SDS011;7344;50.864;4.362;2022-08-03T03:10:07;3.20;;;1.95;;
14516;SDS011;7344;50.864;4.362;2022-08-03T03:12:34;4.15;;;2.00;;
14516;SDS011;7344;50.864;4.362;2022-08-03T03:15:02;3.58;;;2.08;;
14516;SDS011;7344;50.864;4.362;2022-08-03T03:17:30;3.88;;;1.80;;
14516;SDS011;7344;50.864;4.362;2022-08-03T03:19:57;10.00;;;2.70;;
14516;SDS011;7344;50.864;4.362;2022-08-03T03:22:24;5.63;;;2.30;;
14516;SDS011;7344;50.864;4.362;2022-08-03T03:24:51;6.25;;;2.10;;
14516;SDS011;7344;50.864;4.362;2022-08-03T03:27:18;6.70;;;2.30;;
14516;SDS011;7344;50.864;4.362;2022-08-03T03:29:44;8.00;;;2.20;;
14516;SDS011;7344;50.864;4.362;2022-08-03T03:32:10;7.18;;;2.30;;
14516;SDS011;7344;50.864;4.362;2022-08-03T03:34:36;10.02;;;2.65;;
14516;SDS011;7344;50.864;4.362;2022-08-03T03:37:01;8.15;;;2.88;;
14516;SDS011;7344;50.864;4.362;2022-08-03T03:39:27;9.02;;;2.58;;
14516;SDS011;7344;50.864;4.362;2022-08-03T03:41:53;8.85;;;2.38;;
14516;SDS011;7344;50.864;4.362;2022-08-03T03:44:19;4.07;;;2.47;;
14516;SDS011;7344;50.864;4.362;2022-08-03T03:46:44;12.43;;;2.10;;
14516;SDS011;7344;50.864;4.362;2022-08-03T03:49:10;5.40;;;2.20;;
14516;SDS011;7344;50.864;4.362;2022-08-03T03:51:36;5.43;;;2.40;;
14516;SDS011;7344;50.864;4.362;2022-08-03T03:54:02;6.78;;;2.45;;
14516;SDS011;7344;50.864;4.362;2022-08-03T03:56:31;4.93;;;2.25;;
14516;SDS011;7344;50.864;4.362;2022-08-03T03:58:57;8.77;;;2.28;;
14516;SDS011;7344;50.864;4.362;2022-08-03T04:01:23;3.88;;;2.25;;
14516;SDS011;7344;50.864;4.362;2022-08-03T04:03:49;5.22;;;2.30;;
14516;SDS011;7344;50.864;4.362;2022-08-03T04:06:15;7.45;;;2.50;;
14516;SDS011;7344;50.864;4.362;2022-08-03T04:08:59;5.32;;;2.42;;
14516;SDS011;7344;50.864;4.362;2022-08-03T04:11:51;6.63;;;2.00;;
14516;SDS011;7344;50.864;4.362;2022-08-03T04:16:46;11.68;;;2.45;;
14516;SDS011;7344;50.864;4.362;2022-08-03T04:22:08;7.35;;;2.20;;
14516;SDS011;7344;50.864;4.362;2022-08-03T04:24:52;6.00;;;2.45;;
14516;SDS011;7344;50.864;4.362;2022-08-03T04:27:24;7.43;;;2.60;;
14516;SDS011;7344;50.864;4.362;2022-08-03T04:29:52;8.52;;;2.90;;
14516;SDS011;7344;50.864;4.362;2022-08-03T04:32:19;6.10;;;2.40;;
14516;SDS011;7344;50.864;4.362;2022-08-03T04:34:49;5.68;;;2.20;;
14516;SDS011;7344;50.864;4.362;2022-08-03T04:37:48;5.82;;;2.55;;
14516;SDS011;7344;50.864;4.362;2022-08-03T04:40:12;10.57;;;2.50;;
14516;SDS011;7344;50.864;4.362;2022-08-03T04:42:39;9.45;;;2.13;;
14516;SDS011;7344;50.864;4.362;2022-08-03T04:45:06;6.75;;;2.78;;
14516;SDS011;7344;50.864;4.362;2022-08-03T04:47:35;7.57;;;2.17;;
14516;SDS011;7344;50.864;4.362;2022-08-03T04:50:03;9.05;;;2.45;;
14516;SDS011;7344;50.864;4.362;2022-08-03T04:52:29;5.32;;;2.55;;
14516;SDS011;7344;50.864;4.362;2022-08-03T04:54:55;10.80;;;2.38;;
14516;SDS011;7344;50.864;4.362;2022-08-03T04:57:21;9.77;;;2.83;;
14516;SDS011;7344;50.864;4.362;2022-08-03T04:59:47;7.82;;;2.85;;
14516;SDS011;7344;50.864;4.362;2022-08-03T05:02:16;8.57;;;2.25;;
14516;SDS011;7344;50.864;4.362;2022-08-03T05:04:42;10.45;;;2.35;;
14516;SDS011;7344;50.864;4.362;2022-08-03T05:07:10;8.77;;;2.30;;
14516;SDS011;7344;50.864;4.362;2022-08-03T05:09:39;16.80;;;2.67;;
14516;SDS011;7344;50.864;4.362;2022-08-03T05:12:05;4.85;;;2.40;;
14516;SDS011;7344;50.864;4.362;2022-08-03T05:14:31;11.30;;;2.45;;
14516;SDS011;7344;50.864;4.362;2022-08-03T05:16:58;10.35;;;2.30;;
14516;SDS011;7344;50.864;4.362;2022-08-03T05:19:23;9.65;;;2.30;;
14516;SDS011;7344;50.864;4.362;2022-08-03T05:21:49;8.38;;;2.22;;
14516;SDS011;7344;50.864;4.362;2022-08-03T05:24:15;9.85;;;2.35;;
14516;SDS011;7344;50.864;4.362;2022-08-03T05:26:40;7.05;;;2.55;;
14516;SDS011;7344;50.864;4.362;2022-08-03T05:29:06;10.82;;;2.58;;
14516;SDS011;7344;50.864;4.362;2022-08-03T05:31:32;5.47;;;2.30;;
14516;SDS011;7344;50.864;4.362;2022-08-03T05:33:57;11.77;;;2.70;;
14516;SDS011;7344;50.864;4.362;2022-08-03T05:36:23;7.93;;;2.42;;
14516;SDS011;7344;50.864;4.362;2022-08-03T05:38:48;12.93;;;2.80;;
14516;SDS011;7344;50.864;4.362;2022-08-03T05:41:14;8.38;;;2.60;;
14516;SDS011;7344;50.864;4.362;2022-08-03T05:43:40;11.10;;;2.60;;
14516;SDS011;7344;50.864;4.362;2022-08-03T05:46:05;10.82;;;3.17;;
14516;SDS011;7344;50.864;4.362;2022-08-03T05:48:31;9.52;;;2.92;;
14516;SDS011;7344;50.864;4.362;2022-08-03T05:50:56;7.43;;;2.60;;
14516;SDS011;7344;50.864;4.362;2022-08-03T05:53:22;8.80;;;2.30;;
14516;SDS011;7344;50.864;4.362;2022-08-03T05:55:48;9.70;;;2.20;;
14516;SDS011;7344;50.864;4.362;2022-08-03T05:58:13;10.98;;;2.72;;
14516;SDS011;7344;50.864;4.362;2022-08-03T06:00:39;6.18;;;2.47;;
14516;SDS011;7344;50.864;4.362;2022-08-03T06:03:04;10.00;;;2.80;;
14516;SDS011;7344;50.864;4.362;2022-08-03T06:05:30;10.20;;;3.03;;
14516;SDS011;7344;50.864;4.362;2022-08-03T06:07:56;7.07;;;2.45;;
14516;SDS011;7344;50.864;4.362;2022-08-03T06:10:22;9.20;;;2.45;;
14516;SDS011;7344;50.864;4.362;2022-08-03T06:12:47;5.78;;;1.90;;
14516;SDS011;7344;50.864;4.362;2022-08-03T06:15:15;9.80;;;2.72;;
14516;SDS011;7344;50.864;4.362;2022-08-03T06:17:44;7.53;;;2.80;;
14516;SDS011;7344;50.864;4.362;2022-08-03T06:20:11;10.80;;;2.47;;
14516;SDS011;7344;50.864;4.362;2022-08-03T06:22:36;9.40;;;2.80;;
14516;SDS011;7344;50.864;4.362;2022-08-03T06:25:02;9.52;;;2.80;;
14516;SDS011;7344;50.864;4.362;2022-08-03T06:27:28;10.35;;;2.50;;
14516;SDS011;7344;50.864;4.362;2022-08-03T06:29:53;7.43;;;2.60;;
14516;SDS011;7344;50.864;4.362;2022-08-03T06:32:19;11.27;;;2.72;;
14516;SDS011;7344;50.864;4.362;2022-08-03T06:34:46;9.13;;;2.45;;
14516;SDS011;7344;50.864;4.362;2022-08-03T06:37:12;7.97;;;2.75;;
14516;SDS011;7344;50.864;4.362;2022-08-03T06:39:38;8.07;;;2.80;;
14516;SDS011;7344;50.864;4.362;2022-08-03T06:42:04;12.40;;;3.13;;
14516;SDS011;7344;50.864;4.362;2022-08-03T06:44:29;9.65;;;2.50;;
14516;SDS011;7344;50.864;4.362;2022-08-03T06:46:55;8.02;;;2.25;;
14516;SDS011;7344;50.864;4.362;2022-08-03T06:49:20;10.55;;;2.30;;
14516;SDS011;7344;50.864;4.362;2022-08-03T06:51:46;9.82;;;2.70;;
14516;SDS011;7344;50.864;4.362;2022-08-03T06:54:12;7.90;;;2.58;;
14516;SDS011;7344;50.864;4.362;2022-08-03T06:56:37;6.50;;;2.20;;
14516;SDS011;7344;50.864;4.362;2022-08-03T06:59:03;3.88;;;1.90;;
14516;SDS011;7344;50.864;4.362;2022-08-03T07:01:29;7.13;;;1.95;;
14516;SDS011;7344;50.864;4.362;2022-08-03T07:03:54;8.48;;;1.92;;
14516;SDS011;7344;50.864;4.362;2022-08-03T07:06:20;5.68;;;2.05;;
14516;SDS011;7344;50.864;4.362;2022-08-03T07:08:46;3.15;;;1.67;;
14516;SDS011;7344;50.864;4.362;2022-08-03T07:11:11;6.35;;;1.67;;
14516;SDS011;7344;50.864;4.362;2022-08-03T07:13:37;6.07;;;2.00;;
14516;SDS011;7344;50.864;4.362;2022-08-03T07:16:05;2.40;;;1.63;;
14516;SDS011;7344;50.864;4.362;2022-08-03T07:18:30;4.15;;;1.73;;
14516;SDS011;7344;50.864;4.362;2022-08-03T07:20:56;5.60;;;1.65;;
14516;SDS011;7344;50.864;4.362;2022-08-03T07:23:22;5.35;;;1.70;;
14516;SDS011;7344;50.864;4.362;2022-08-03T07:25:49;5.97;;;2.10;;
14516;SDS011;7344;50.864;4.362;2022-08-03T07:28:14;5.05;;;1.70;;
14516;SDS011;7344;50.864;4.362;2022-08-03T07:30:40;3.72;;;1.60;;
14516;SDS011;7344;50.864;4.362;2022-08-03T07:33:06;4.93;;;1.98;;
14516;SDS011;7344;50.864;4.362;2022-08-03T07:35:31;3.10;;;1.52;;
14516;SDS011;7344;50.864;4.362;2022-08-03T07:37:57;5.93;;;1.80;;
14516;SDS011;7344;50.864;4.362;2022-08-03T07:40:22;7.32;;;1.90;;
14516;SDS011;7344;50.864;4.362;2022-08-03T07:42:48;3.58;;;1.75;;
14516;SDS011;7344;50.864;4.362;2022-08-03T07:45:14;5.07;;;2.17;;
14516;SDS011;7344;50.864;4.362;2022-08-03T07:47:39;6.40;;;1.85;;
14516;SDS011;7344;50.864;4.362;2022-08-03T07:50:05;7.50;;;1.95;;
14516;SDS011;7344;50.864;4.362;2022-08-03T07:52:31;4.40;;;1.55;;
14516;SDS011;7344;50.864;4.362;2022-08-03T07:55:20;3.25;;;1.70;;
14516;SDS011;7344;50.864;4.362;2022-08-03T07:58:05;6.15;;;1.80;;
14516;SDS011;7344;50.864;4.362;2022-08-03T08:00:33;3.08;;;2.00;;
14516;SDS011;7344;50.864;4.362;2022-08-03T08:03:00;7.47;;;2.33;;
14516;SDS011;7344;50.864;4.362;2022-08-03T08:05:26;5.85;;;1.90;;
14516;SDS011;7344;50.864;4.362;2022-08-03T08:07:52;5.40;;;1.90;;
14516;SDS011;7344;50.864;4.362;2022-08-03T08:10:18;5.85;;;2.05;;
14516;SDS011;7344;50.864;4.362;2022-08-03T08:12:44;6.47;;;1.85;;
14516;SDS011;7344;50.864;4.362;2022-08-03T08:15:10;7.80;;;1.90;;
14516;SDS011;7344;50.864;4.362;2022-08-03T08:17:52;8.30;;;2.40;;
14516;SDS011;7344;50.864;4.362;2022-08-03T08:20:20;9.23;;;2.25;;
14516;SDS011;7344;50.864;4.362;2022-08-03T08:22:48;4.47;;;1.88;;
14516;SDS011;7344;50.864;4.362;2022-08-03T08:25:14;4.05;;;1.90;;
14516;SDS011;7344;50.864;4.362;2022-08-03T08:27:46;8.40;;;2.05;;
14516;SDS011;7344;50.864;4.362;2022-08-03T08:30:14;7.25;;;2.00;;
14516;SDS011;7344;50.864;4.362;2022-08-03T08:32:43;9.32;;;2.40;;
14516;SDS011;7344;50.864;4.362;2022-08-03T08:35:09;7.60;;;2.22;;
14516;SDS011;7344;50.864;4.362;2022-08-03T08:37:36;8.48;;;2.50;;
14516;SDS011;7344;50.864;4.362;2022-08-03T08:40:02;7.15;;;2.00;;
14516;SDS011;7344;50.864;4.362;2022-08-03T08:42:29;9.43;;;2.45;;
14516;SDS011;7344;50.864;4.362;2022-08-03T08:44:56;5.20;;;1.95;;
14516;SDS011;7344;50.864;4.362;2022-08-03T08:47:22;7.40;;;2.05;;
14516;SDS011;7344;50.864;4.362;2022-08-03T08:49:52;7.95;;;2.40;;
14516;SDS011;7344;50.864;4.362;2022-08-03T08:52:23;9.57;;;2.50;;
14516;SDS011;7344;50.864;4.362;2022-08-03T08:54:51;7.43;;;2.17;;
14516;SDS011;7344;50.864;4.362;2022-08-03T08:57:24;6.78;;;2.30;;
14516;SDS011;7344;50.864;4.362;2022-08-03T08:59:53;9.65;;;2.13;;
14516;SDS011;7344;50.864;4.362;2022-08-03T09:02:21;5.15;;;1.77;;
14516;SDS011;7344;50.864;4.362;2022-08-03T09:04:53;7.00;;;2.15;;
14516;SDS011;7344;50.864;4.362;2022-08-03T09:07:19;6.80;;;2.00;;
14516;SDS011;7344;50.864;4.362;2022-08-03T09:09:45;7.93;;;2.13;;
14516;SDS011;7344;50.864;4.362;2022-08-03T09:12:10;5.97;;;2.17;;
14516;SDS011;7344;50.864;4.362;2022-08-03T09:14:36;3.65;;;1.65;;
14516;SDS011;7344;50.864;4.362;2022-08-03T09:17:02;6.43;;;1.90;;
14516;SDS011;7344;50.864;4.362;2022-08-03T09:19:32;5.35;;;1.70;;
14516;SDS011;7344;50.864;4.362;2022-08-03T09:24:35;6.93;;;1.73;;
14516;SDS011;7344;50.864;4.362;2022-08-03T09:27:01;6.50;;;1.70;;
14516;SDS011;7344;50.864;4.362;2022-08-03T09:29:30;5.03;;;1.88;;
14516;SDS011;7344;50.864;4.362;2022-08-03T09:32:01;6.55;;;1.90;;
14516;SDS011;7344;50.864;4.362;2022-08-03T09:34:27;4.32;;;1.30;;
14516;SDS011;7344;50.864;4.362;2022-08-03T09:36:54;3.58;;;1.73;;
14516;SDS011;7344;50.864;4.362;2022-08-03T09:39:26;7.00;;;1.58;;
14516;SDS011;7344;50.864;4.362;2022-08-03T09:42:09;3.60;;;1.70;;
14516;SDS011;7344;50.864;4.362;2022-08-03T09:44:40;4.95;;;1.60;;
14516;SDS011;7344;50.864;4.362;2022-08-03T09:47:07;5.72;;;1.48;;
14516;SDS011;7344;50.864;4.362;2022-08-03T09:49:34;3.80;;;1.65;;
14516;SDS011;7344;50.864;4.362;2022-08-03T09:52:01;4.95;;;1.40;;
14516;SDS011;7344;50.864;4.362;2022-08-03T09:54:40;3.25;;;1.40;;
14516;SDS011;7344;50.864;4.362;2022-08-03T09:57:06;6.88;;;1.65;;
14516;SDS011;7344;50.864;4.362;2022-08-03T09:59:32;9.05;;;1.70;;
14516;SDS011;7344;50.864;4.362;2022-08-03T10:01:58;2.72;;;1.38;;
14516;SDS011;7344;50.864;4.362;2022-08-03T10:04:25;7.15;;;1.90;;
14516;SDS011;7344;50.864;4.362;2022-08-03T10:07:01;3.80;;;1.55;;
14516;SDS011;7344;50.864;4.362;2022-08-03T10:09:26;4.55;;;1.52;;
14516;SDS011;7344;50.864;4.362;2022-08-03T10:11:52;4.63;;;1.42;;
14516;SDS011;7344;50.864;4.362;2022-08-03T10:14:19;2.38;;;1.13;;
14516;SDS011;7344;50.864;4.362;2022-08-03T10:16:46;2.10;;;1.10;;
14516;SDS011;7344;50.864;4.362;2022-08-03T10:19:13;5.25;;;1.50;;
14516;SDS011;7344;50.864;4.362;2022-08-03T10:21:41;3.05;;;1.30;;
14516;SDS011;7344;50.864;4.362;2022-08-03T10:24:13;4.35;;;1.48;;
14516;SDS011;7344;50.864;4.362;2022-08-03T10:26:41;4.25;;;1.52;;
14516;SDS011;7344;50.864;4.362;2022-08-03T10:29:14;2.10;;;1.65;;
14516;SDS011;7344;50.864;4.362;2022-08-03T10:31:45;4.10;;;1.23;;
14516;SDS011;7344;50.864;4.362;2022-08-03T10:34:22;5.57;;;1.80;;
14516;SDS011;7344;50.864;4.362;2022-08-03T10:36:51;3.88;;;1.17;;
14516;SDS011;7344;50.864;4.362;2022-08-03T10:39:20;2.35;;;1.10;;
14516;SDS011;7344;50.864;4.362;2022-08-03T10:41:48;2.35;;;1.33;;
14516;SDS011;7344;50.864;4.362;2022-08-03T10:44:18;5.85;;;1.48;;
14516;SDS011;7344;50.864;4.362;2022-08-03T10:46:47;1.90;;;1.20;;
14516;SDS011;7344;50.864;4.362;2022-08-03T10:49:17;5.57;;;1.30;;
14516;SDS011;7344;50.864;4.362;2022-08-03T10:51:44;1.85;;;1.17;;
14516;SDS011;7344;50.864;4.362;2022-08-03T11:00:06;7.43;;;1.95;;
14516;SDS011;7344;50.864;4.362;2022-08-03T11:05:31;3.42;;;1.30;;
14516;SDS011;7344;50.864;4.362;2022-08-03T11:11:02;6.38;;;1.48;;
14516;SDS011;7344;50.864;4.362;2022-08-03T11:16:21;6.22;;;1.05;;
14516;SDS011;7344;50.864;4.362;2022-08-03T11:18:56;1.42;;;1.10;;
14516;SDS011;7344;50.864;4.362;2022-08-03T11:27:21;8.43;;;1.30;;
14516;SDS011;7344;50.864;4.362;2022-08-03T11:35:09;4.43;;;1.20;;
14516;SDS011;7344;50.864;4.362;2022-08-03T11:38:00;2.22;;;1.10;;
14516;SDS011;7344;50.864;4.362;2022-08-03T11:40:34;7.05;;;1.30;;
14516;SDS011;7344;50.864;4.362;2022-08-03T11:43:00;4.38;;;1.08;;
14516;SDS011;7344;50.864;4.362;2022-08-03T11:45:27;1.77;;;1.00;;
14516;SDS011;7344;50.864;4.362;2022-08-03T11:47:53;2.17;;;1.00;;
14516;SDS011;7344;50.864;4.362;2022-08-03T11:50:20;2.22;;;1.10;;
14516;SDS011;7344;50.864;4.362;2022-08-03T11:52:46;6.75;;;1.40;;
14516;SDS011;7344;50.864;4.362;2022-08-03T11:55:14;5.32;;;1.65;;
14516;SDS011;7344;50.864;4.362;2022-08-03T11:57:42;2.42;;;1.10;;
14516;SDS011;7344;50.864;4.362;2022-08-03T12:00:24;2.38;;;1.08;;
14516;SDS011;7344;50.864;4.362;2022-08-03T12:05:31;6.60;;;1.42;;
14516;SDS011;7344;50.864;4.362;2022-08-03T12:10:52;2.58;;;1.00;;
14516;SDS011;7344;50.864;4.362;2022-08-03T12:13:19;5.28;;;1.52;;
14516;SDS011;7344;50.864;4.362;2022-08-03T12:15:50;9.63;;;1.48;;
14516;SDS011;7344;50.864;4.362;2022-08-03T12:18:25;2.03;;;1.30;;
14516;SDS011;7344;50.864;4.362;2022-08-03T12:20:51;3.58;;;1.10;;
14516;SDS011;7344;50.864;4.362;2022-08-03T12:23:18;2.47;;;1.23;;
14516;SDS011;7344;50.864;4.362;2022-08-03T12:25:44;3.78;;;1.45;;
14516;SDS011;7344;50.864;4.362;2022-08-03T12:30:38;1.67;;;1.02;;
14516;SDS011;7344;50.864;4.362;2022-08-03T12:33:13;0.80;;;0.80;;
14516;SDS011;7344;50.864;4.362;2022-08-03T12:35:48;1.73;;;1.20;;
14516;SDS011;7344;50.864;4.362;2022-08-03T12:38:27;4.72;;;1.23;;
14516;SDS011;7344;50.864;4.362;2022-08-03T12:40:54;1.42;;;1.00;;
14516;SDS011;7344;50.864;4.362;2022-08-03T12:43:23;1.67;;;1.13;;
14516;SDS011;7344;50.864;4.362;2022-08-03T12:45:49;4.55;;;2.17;;
14516;SDS011;7344;50.864;4.362;2022-08-03T12:48:15;4.28;;;1.27;;
14516;SDS011;7344;50.864;4.362;2022-08-03T12:50:41;1.35;;;1.10;;
14516;SDS011;7344;50.864;4.362;2022-08-03T12:53:07;4.07;;;1.40;;
14516;SDS011;7344;50.864;4.362;2022-08-03T12:55:34;5.88;;;1.33;;
14516;SDS011;7344;50.864;4.362;2022-08-03T12:58:04;2.92;;;1.38;;
14516;SDS011;7344;50.864;4.362;2022-08-03T13:00:31;3.65;;;1.40;;
14516;SDS011;7344;50.864;4.362;2022-08-03T13:02:58;6.28;;;1.25;;
14516;SDS011;7344;50.864;4.362;2022-08-03T13:05:31;3.55;;;1.20;;
14516;SDS011;7344;50.864;4.362;2022-08-03T13:08:16;1.02;;;0.90;;
14516;SDS011;7344;50.864;4.362;2022-08-03T13:10:48;3.58;;;1.27;;
14516;SDS011;7344;50.864;4.362;2022-08-03T13:13:14;1.33;;;0.75;;
14516;SDS011;7344;50.864;4.362;2022-08-03T13:15:40;2.20;;;0.93;;
14516;SDS011;7344;50.864;4.362;2022-08-03T13:18:06;7.25;;;1.50;;
14516;SDS011;7344;50.864;4.362;2022-08-03T13:20:32;5.13;;;1.83;;
14516;SDS011;7344;50.864;4.362;2022-08-03T13:22:58;2.33;;;1.25;;
14516;SDS011;7344;50.864;4.362;2022-08-03T13:25:24;2.85;;;1.20;;
14516;SDS011;7344;50.864;4.362;2022-08-03T13:27:49;1.77;;;1.10;;
14516;SDS011;7344;50.864;4.362;2022-08-03T13:30:16;2.47;;;0.93;;
14516;SDS011;7344;50.864;4.362;2022-08-03T13:32:42;3.22;;;1.27;;
14516;SDS011;7344;50.864;4.362;2022-08-03T13:35:08;3.08;;;1.27;;
14516;SDS011;7344;50.864;4.362;2022-08-03T13:37:34;1.95;;;0.90;;
14516;SDS011;7344;50.864;4.362;2022-08-03T13:40:01;3.83;;;1.40;;
14516;SDS011;7344;50.864;4.362;2022-08-03T13:42:28;5.00;;;1.08;;
14516;SDS011;7344;50.864;4.362;2022-08-03T13:44:55;2.58;;;1.52;;
14516;SDS011;7344;50.864;4.362;2022-08-03T13:47:20;11.20;;;2.15;;
14516;SDS011;7344;50.864;4.362;2022-08-03T13:49:46;2.63;;;1.17;;
14516;SDS011;7344;50.864;4.362;2022-08-03T13:52:12;1.73;;;1.20;;
14516;SDS011;7344;50.864;4.362;2022-08-03T13:54:37;1.00;;;0.90;;
14516;SDS011;7344;50.864;4.362;2022-08-03T13:57:03;1.33;;;1.10;;
14516;SDS011;7344;50.864;4.362;2022-08-03T13:59:28;2.47;;;1.10;;
14516;SDS011;7344;50.864;4.362;2022-08-03T14:01:54;2.55;;;1.30;;
14516;SDS011;7344;50.864;4.362;2022-08-03T14:04:20;4.97;;;1.23;;
14516;SDS011;7344;50.864;4.362;2022-08-03T14:06:46;3.00;;;1.08;;
14516;SDS011;7344;50.864;4.362;2022-08-03T14:09:12;2.97;;;1.23;;
14516;SDS011;7344;50.864;4.362;2022-08-03T14:11:41;1.98;;;0.88;;
14516;SDS011;7344;50.864;4.362;2022-08-03T14:14:08;2.50;;;1.10;;
14516;SDS011;7344;50.864;4.362;2022-08-03T14:16:34;2.47;;;1.23;;
14516;SDS011;7344;50.864;4.362;2022-08-03T14:19:00;2.13;;;1.20;;
14516;SDS011;7344;50.864;4.362;2022-08-03T14:21:26;3.85;;;1.30;;
14516;SDS011;7344;50.864;4.362;2022-08-03T14:23:52;3.65;;;1.42;;
14516;SDS011;7344;50.864;4.362;2022-08-03T14:26:17;2.88;;;1.08;;
14516;SDS011;7344;50.864;4.362;2022-08-03T14:28:44;2.45;;;1.42;;
14516;SDS011;7344;50.864;4.362;2022-08-03T14:31:10;6.53;;;1.70;;
14516;SDS011;7344;50.864;4.362;2022-08-03T14:33:36;3.35;;;1.20;;
14516;SDS011;7344;50.864;4.362;2022-08-03T14:36:02;2.90;;;1.58;;
14516;SDS011;7344;50.864;4.362;2022-08-03T14:38:29;4.45;;;1.60;;
14516;SDS011;7344;50.864;4.362;2022-08-03T14:40:54;3.85;;;1.40;;
14516;SDS011;7344;50.864;4.362;2022-08-03T14:43:20;2.40;;;1.27;;
14516;SDS011;7344;50.864;4.362;2022-08-03T14:45:50;2.08;;;1.10;;
14516;SDS011;7344;50.864;4.362;2022-08-03T14:48:18;2.00;;;1.00;;
14516;SDS011;7344;50.864;4.362;2022-08-03T14:50:44;1.35;;;1.00;;
14516;SDS011;7344;50.864;4.362;2022-08-03T14:53:10;2.90;;;1.33;;
14516;SDS011;7344;50.864;4.362;2022-08-03T14:55:35;3.38;;;1.20;;
14516;SDS011;7344;50.864;4.362;2022-08-03T14:58:01;1.88;;;1.00;;
14516;SDS011;7344;50.864;4.362;2022-08-03T15:00:30;1.92;;;1.00;;
14516;SDS011;7344;50.864;4.362;2022-08-03T15:02:59;4.13;;;1.45;;
14516;SDS011;7344;50.864;4.362;2022-08-03T15:05:26;6.88;;;2.13;;
14516;SDS011;7344;50.864;4.362;2022-08-03T15:07:51;2.58;;;1.30;;
14516;SDS011;7344;50.864;4.362;2022-08-03T15:10:17;2.03;;;1.10;;
14516;SDS011;7344;50.864;4.362;2022-08-03T15:12:43;4.25;;;1.15;;
14516;SDS011;7344;50.864;4.362;2022-08-03T15:15:09;4.65;;;1.27;;
14516;SDS011;7344;50.864;4.362;2022-08-03T15:17:36;2.45;;;1.10;;
14516;SDS011;7344;50.864;4.362;2022-08-03T15:20:02;2.50;;;1.10;;
14516;SDS011;7344;50.864;4.362;2022-08-03T15:22:29;2.28;;;1.10;;
14516;SDS011;7344;50.864;4.362;2022-08-03T15:24:54;3.05;;;1.20;;
14516;SDS011;7344;50.864;4.362;2022-08-03T15:27:20;2.40;;;1.05;;
14516;SDS011;7344;50.864;4.362;2022-08-03T15:29:46;6.10;;;1.60;;
14516;SDS011;7344;50.864;4.362;2022-08-03T15:32:12;3.30;;;1.23;;
14516;SDS011;7344;50.864;4.362;2022-08-03T15:34:37;2.42;;;1.20;;
14516;SDS011;7344;50.864;4.362;2022-08-03T15:37:03;3.90;;;1.27;;
14516;SDS011;7344;50.864;4.362;2022-08-03T15:39:30;3.17;;;1.20;;
14516;SDS011;7344;50.864;4.362;2022-08-03T15:41:56;4.60;;;1.25;;
14516;SDS011;7344;50.864;4.362;2022-08-03T15:44:22;4.82;;;1.40;;
14516;SDS011;7344;50.864;4.362;2022-08-03T15:46:47;1.63;;;1.33;;
14516;SDS011;7344;50.864;4.362;2022-08-03T15:49:13;4.22;;;1.33;;
14516;SDS011;7344;50.864;4.362;2022-08-03T15:51:40;2.50;;;1.50;;
14516;SDS011;7344;50.864;4.362;2022-08-03T15:54:06;6.43;;;1.80;;